Time;durP1;ratioP1;P1;durP2;ratioP2;P2;SDS_P1;SDS_P2;PMS_P1;PMS_P2;Temp;Humidity;BMP_temperature;BMP_pressure;BME280_temperature;BME280_humidity;BME280_pressure;Samples;Min_cycle;Max_cycle;Signal;HPM_P1;HPM_P2
2022/08/20 00:00:35;;;;;;;3.03;2.53;;;28.40;91.10;;;;;;6132843;23;20492;-94
2022/08/20 00:03:17;;;;;;;6.40;2.80;;;28.30;91.00;;;;;;6127390;23;20905;-94
2022/08/20 00:05:53;;;;;;;4.97;3.27;;;28.30;90.90;;;;;;6131098;23;20416;-93
2022/08/20 00:08:20;;;;;;;6.80;3.10;;;28.30;90.90;;;;;;6133753;23;20386;-94
2022/08/20 00:10:48;;;;;;;4.60;3.30;;;28.30;90.80;;;;;;6129070;23;20488;-95
2022/08/20 00:13:18;;;;;;;8.43;2.97;;;28.30;90.80;;;;;;6128873;23;20466;-94
2022/08/20 00:15:44;;;;;;;9.10;2.93;;;28.40;90.80;;;;;;6132113;23;20415;-95
2022/08/20 00:18:11;;;;;;;2.97;2.60;;;28.40;91.10;;;;;;6128936;23;20378;-94
2022/08/20 00:20:41;;;;;;;4.20;2.70;;;28.40;91.10;;;;;;6129012;23;20788;-94
2022/08/20 00:23:07;;;;;;;3.50;2.70;;;28.30;91.20;;;;;;6128953;23;20396;-95
2022/08/20 00:25:33;;;;;;;5.60;3.10;;;28.40;91.20;;;;;;6136800;23;20436;-96
2022/08/20 00:28:02;;;;;;;7.90;3.30;;;28.40;91.20;;;;;;6133645;23;20373;-95
2022/08/20 00:30:31;;;;;;;7.27;2.90;;;28.30;91.20;;;;;;6133430;23;20802;-94
2022/08/20 00:33:01;;;;;;;4.53;3.03;;;28.30;91.30;;;;;;6133165;23;20390;-95
2022/08/20 00:35:30;;;;;;;5.17;2.80;;;28.30;91.50;;;;;;6159941;23;20464;-95
2022/08/20 00:37:55;;;;;;;5.80;3.37;;;28.30;91.30;;;;;;6133823;23;20465;-95
2022/08/20 00:40:28;;;;;;;2.90;2.60;;;28.30;91.60;;;;;;6133459;23;20495;-94
2022/08/20 00:42:58;;;;;;;6.70;3.10;;;28.20;91.40;;;;;;6133447;23;20151;-94
2022/08/20 00:45:26;;;;;;;3.37;2.43;;;28.20;91.70;;;;;;6134513;23;20442;-94
2022/08/20 00:47:54;;;;;;;4.13;2.37;;;28.20;91.30;;;;;;6133241;23;20379;-94
2022/08/20 00:50:26;;;;;;;3.27;2.73;;;28.20;91.20;;;;;;6134080;23;20432;-94
2022/08/20 00:52:53;;;;;;;3.90;2.40;;;28.20;91.30;;;;;;6138651;23;20388;-94
2022/08/20 00:55:23;;;;;;;2.80;2.40;;;28.20;91.20;;;;;;6132754;23;20505;-94
2022/08/20 00:57:53;;;;;;;5.73;3.47;;;28.20;91.00;;;;;;6134864;23;20420;-93
2022/08/20 01:00:45;;;;;;;4.33;2.53;;;28.20;91.10;;;;;;6133429;23;20457;-94
2022/08/20 01:03:14;;;;;;;5.30;3.30;;;28.20;91.20;;;;;;6127969;23;20424;-95
2022/08/20 01:05:43;;;;;;;3.77;2.63;;;28.10;91.20;;;;;;6158247;23;20416;-95
2022/08/20 01:08:10;;;;;;;2.83;2.50;;;28.10;91.40;;;;;;6134144;23;20379;-94
2022/08/20 01:10:40;;;;;;;4.77;3.33;;;28.10;91.50;;;;;;6134089;23;20429;-94
2022/08/20 01:13:13;;;;;;;3.57;3.00;;;28.10;91.40;;;;;;6134344;23;20429;-94
2022/08/20 01:15:43;;;;;;;6.17;2.60;;;28.00;91.40;;;;;;6132866;23;20412;-94
2022/08/20 01:18:24;;;;;;;4.93;2.73;;;28.00;91.40;;;;;;6132928;23;20373;-94
2022/08/20 01:21:02;;;;;;;3.80;3.17;;;28.00;91.50;;;;;;6132973;23;20544;-94
2022/08/20 01:23:49;;;;;;;4.10;3.00;;;28.00;91.60;;;;;;6133323;23;20395;-94
2022/08/20 01:26:25;;;;;;;5.70;2.90;;;27.90;91.60;;;;;;6127736;23;20961;-95
2022/08/20 01:28:57;;;;;;;6.70;3.13;;;27.90;91.60;;;;;;6135002;23;20473;-94
2022/08/20 01:31:29;;;;;;;5.00;3.60;;;27.90;91.70;;;;;;6127742;23;20705;-93
2022/08/20 01:33:57;;;;;;;6.50;2.83;;;27.90;91.70;;;;;;6125131;23;20864;-94
2022/08/20 01:36:30;;;;;;;3.63;2.67;;;27.80;91.70;;;;;;6125051;23;20852;-94
2022/08/20 01:38:57;;;;;;;4.83;2.30;;;27.80;91.70;;;;;;6124666;23;20467;-93
2022/08/20 01:41:50;;;;;;;6.37;3.33;;;27.80;91.80;;;;;;6124814;23;20417;-93
2022/08/20 01:44:16;;;;;;;4.90;3.20;;;27.70;91.80;;;;;;6124704;23;20430;-94
2022/08/20 01:46:44;;;;;;;5.97;3.33;;;27.70;92.00;;;;;;6125404;23;20505;-93
2022/08/20 01:49:28;;;;;;;6.40;3.43;;;27.70;92.00;;;;;;6125034;23;20195;-94
2022/08/20 01:51:56;;;;;;;5.30;2.90;;;27.60;92.10;;;;;;6128401;23;20640;-95
2022/08/20 01:54:23;;;;;;;8.17;3.17;;;27.60;92.40;;;;;;6126613;23;20441;-95
2022/08/20 01:57:02;;;;;;;7.00;3.60;;;27.50;92.60;;;;;;6125532;23;20398;-93
2022/08/20 01:59:28;;;;;;;8.47;4.00;;;27.40;92.80;;;;;;6126761;23;20491;-95
2022/08/20 02:01:54;;;;;;;5.90;3.70;;;27.30;93.10;;;;;;6127219;23;20390;-95
2022/08/20 02:04:21;;;;;;;5.50;3.93;;;27.30;93.40;;;;;;6128713;23;20444;-96
2022/08/20 02:06:50;;;;;;;6.37;3.93;;;27.20;93.60;;;;;;6130035;23;20386;-93
2022/08/20 02:09:17;;;;;;;4.60;3.50;;;27.10;93.90;;;;;;6137040;23;20413;-95
2022/08/20 02:11:43;;;;;;;4.83;4.00;;;27.00;94.20;;;;;;6133130;23;20383;-95
2022/08/20 02:14:10;;;;;;;7.50;5.33;;;26.90;94.40;;;;;;6130305;23;20490;-94
2022/08/20 02:16:38;;;;;;;5.13;3.87;;;26.80;94.60;;;;;;6130029;23;20168;-93
2022/08/20 02:19:27;;;;;;;5.30;3.80;;;26.80;94.90;;;;;;6129939;23;20401;-94
2022/08/20 02:21:57;;;;;;;5.60;4.73;;;26.70;95.20;;;;;;6128529;23;20386;-95
2022/08/20 02:24:23;;;;;;;7.83;5.00;;;26.60;95.50;;;;;;6130411;23;20417;-93
2022/08/20 02:26:51;;;;;;;10.80;4.73;;;26.50;95.70;;;;;;6130226;23;20460;-93
2022/08/20 02:29:17;;;;;;;10.67;4.30;;;26.40;96.10;;;;;;6129820;23;20423;-95
2022/08/20 02:31:44;;;;;;;11.33;5.43;;;26.30;96.40;;;;;;6128791;23;20386;-92
2022/08/20 02:34:11;;;;;;;8.63;4.17;;;26.20;96.70;;;;;;6130778;23;20402;-96
2022/08/20 02:36:38;;;;;;;9.93;5.67;;;26.10;97.20;;;;;;6129474;23;20830;-93
2022/08/20 02:39:07;;;;;;;11.70;5.07;;;26.00;97.60;;;;;;6128920;23;20545;-94
2022/08/20 02:41:45;;;;;;;6.73;5.33;;;25.90;98.10;;;;;;6129112;23;20397;-96
2022/08/20 02:44:11;;;;;;;5.50;4.97;;;25.90;98.70;;;;;;6130087;23;20398;-94
2022/08/20 02:46:37;;;;;;;6.27;5.40;;;25.80;99.20;;;;;;6130108;23;20690;-94
2022/08/20 02:49:03;;;;;;;9.40;6.90;;;25.70;99.70;;;;;;6129435;23;20460;-95
2022/08/20 02:51:30;;;;;;;8.27;6.73;;;25.70;99.90;;;;;;6132776;23;20407;-94
2022/08/20 02:53:55;;;;;;;9.10;7.27;;;25.70;99.90;;;;;;6139109;23;20481;-92
2022/08/20 02:56:21;;;;;;;10.80;6.70;;;25.60;99.90;;;;;;6128545;23;20761;-95
2022/08/20 02:58:47;;;;;;;8.47;7.60;;;25.60;99.90;;;;;;6128689;23;20657;-93
2022/08/20 03:01:15;;;;;;;13.70;7.53;;;25.60;99.90;;;;;;6129906;23;20196;-95
2022/08/20 03:03:43;;;;;;;9.60;8.10;;;25.60;99.90;;;;;;6129383;23;20172;-94
2022/08/20 03:06:15;;;;;;;12.67;7.87;;;25.60;99.90;;;;;;6128544;23;20442;-93
2022/08/20 03:08:41;;;;;;;10.07;8.03;;;25.50;99.90;;;;;;6129066;23;20402;-95
2022/08/20 03:11:07;;;;;;;10.57;7.73;;;25.50;99.90;;;;;;6129486;23;20405;-95
2022/08/20 03:13:33;;;;;;;10.80;7.10;;;25.40;99.90;;;;;;6129360;23;20407;-93
2022/08/20 03:16:01;;;;;;;11.67;7.93;;;25.40;99.90;;;;;;6128235;23;20939;-95
2022/08/20 03:18:36;;;;;;;8.70;7.83;;;25.40;99.90;;;;;;6128605;23;20810;-93
2022/08/20 03:21:03;;;;;;;12.60;7.87;;;25.30;99.90;;;;;;6134649;23;20443;-95
2022/08/20 03:23:30;;;;;;;10.77;7.70;;;25.30;99.90;;;;;;6128261;23;20458;-95
2022/08/20 03:25:57;;;;;;;10.37;7.53;;;25.30;99.90;;;;;;6127685;23;20449;-94
2022/08/20 03:28:23;;;;;;;14.67;8.33;;;25.30;99.90;;;;;;6130030;23;20369;-94
2022/08/20 03:30:50;;;;;;;11.67;8.40;;;25.30;99.90;;;;;;6128938;23;20410;-96
2022/08/20 03:33:18;;;;;;;11.87;8.33;;;25.30;99.90;;;;;;6127607;23;20416;-95
2022/08/20 03:35:44;;;;;;;14.83;8.27;;;25.30;99.90;;;;;;6128139;23;20417;-94
2022/08/20 03:38:13;;;;;;;9.50;8.30;;;25.30;99.90;;;;;;6127688;23;20385;-95
2022/08/20 03:40:39;;;;;;;14.20;7.93;;;25.30;99.90;;;;;;6127798;23;20449;-95
2022/08/20 03:43:07;;;;;;;10.73;8.00;;;25.30;99.90;;;;;;6129305;23;20370;-94
2022/08/20 03:45:35;;;;;;;12.30;8.47;;;25.40;99.90;;;;;;6127787;23;20418;-94
2022/08/20 03:48:02;;;;;;;13.73;7.90;;;25.40;99.90;;;;;;6128663;23;20422;-94
2022/08/20 03:50:30;;;;;;;10.87;7.77;;;25.40;99.90;;;;;;6127735;23;20500;-94
2022/08/20 03:52:56;;;;;;;10.20;7.97;;;25.40;99.90;;;;;;6129212;23;20473;-93
2022/08/20 03:55:23;;;;;;;10.53;7.73;;;25.40;99.90;;;;;;6130389;23;20433;-94
2022/08/20 03:57:53;;;;;;;8.53;7.73;;;25.50;99.90;;;;;;6127658;23;20441;-94
2022/08/20 04:00:23;;;;;;;8.30;7.43;;;25.50;99.90;;;;;;6128213;23;20450;-94
2022/08/20 04:02:52;;;;;;;13.53;7.77;;;25.50;99.90;;;;;;6127614;23;20378;-93
2022/08/20 04:05:18;;;;;;;12.27;8.47;;;25.60;99.90;;;;;;6128194;23;20520;-94
2022/08/20 04:07:43;;;;;;;13.20;9.17;;;25.60;99.90;;;;;;6132306;23;20450;-92
2022/08/20 04:10:11;;;;;;;9.00;7.10;;;25.60;99.90;;;;;;6140945;23;20191;-94
2022/08/20 04:12:39;;;;;;;13.97;8.70;;;25.60;99.90;;;;;;6128215;23;20195;-94
2022/08/20 04:15:11;;;;;;;15.40;8.53;;;25.60;99.90;;;;;;6127947;23;20456;-95
2022/08/20 04:17:38;;;;;;;9.23;8.33;;;25.60;99.90;;;;;;6128218;23;20381;-94
2022/08/20 04:20:05;;;;;;;14.27;8.47;;;25.60;99.90;;;;;;6129939;23;20511;-93
2022/08/20 04:22:31;;;;;;;10.30;7.80;;;25.60;99.90;;;;;;6128824;23;20393;-95
2022/08/20 04:24:56;;;;;;;14.83;8.33;;;25.60;99.90;;;;;;6128523;23;20449;-93
2022/08/20 04:27:22;;;;;;;12.60;8.43;;;25.60;99.90;;;;;;6127374;23;20202;-94
2022/08/20 04:29:48;;;;;;;16.80;8.73;;;25.50;99.90;;;;;;6128189;23;20210;-94
2022/08/20 04:32:14;;;;;;;10.67;7.97;;;25.50;99.90;;;;;;6129402;23;20197;-92
2022/08/20 04:34:39;;;;;;;10.20;8.30;;;25.50;99.90;;;;;;6130004;23;20188;-93
2022/08/20 04:37:05;;;;;;;10.77;8.80;;;25.50;99.90;;;;;;6134291;23;20155;-94
2022/08/20 04:39:32;;;;;;;11.03;9.00;;;25.40;99.90;;;;;;6127102;23;20199;-94
2022/08/20 04:41:58;;;;;;;13.03;9.90;;;25.50;99.90;;;;;;6127626;23;20856;-94
2022/08/20 04:44:23;;;;;;;12.90;9.27;;;25.50;99.90;;;;;;6130141;23;20433;-93
2022/08/20 04:46:49;;;;;;;10.83;9.17;;;25.50;99.90;;;;;;6132678;23;20382;-95
2022/08/20 04:49:15;;;;;;;12.80;9.20;;;25.50;99.90;;;;;;6127648;23;20648;-94
2022/08/20 04:51:41;;;;;;;14.60;9.27;;;25.50;99.90;;;;;;6127893;23;20163;-94
2022/08/20 04:54:06;;;;;;;13.70;9.30;;;25.60;99.90;;;;;;6128859;23;20164;-94
2022/08/20 04:56:38;;;;;;;16.33;10.07;;;25.60;99.90;;;;;;6129637;23;20163;-94
2022/08/20 04:59:04;;;;;;;12.10;10.90;;;25.60;99.90;;;;;;6129983;23;20164;-94
2022/08/20 05:01:31;;;;;;;15.13;10.37;;;25.60;99.90;;;;;;6128799;23;20410;-94
2022/08/20 05:03:58;;;;;;;13.23;9.37;;;25.70;99.90;;;;;;6129162;23;20421;-94
2022/08/20 05:06:27;;;;;;;13.83;9.50;;;25.70;99.90;;;;;;6128594;23;20391;-94
2022/08/20 05:08:54;;;;;;;17.00;9.60;;;25.70;99.90;;;;;;6128133;23;20398;-96
2022/08/20 05:11:21;;;;;;;10.50;8.80;;;25.80;99.90;;;;;;6128667;23;20389;-94
2022/08/20 05:13:47;;;;;;;14.03;10.30;;;25.80;99.90;;;;;;6129976;23;20725;-94
2022/08/20 05:16:13;;;;;;;13.20;9.83;;;25.80;99.90;;;;;;6136729;23;20398;-94
2022/08/20 05:18:39;;;;;;;11.80;10.60;;;25.90;99.90;;;;;;6126985;23;20167;-93
2022/08/20 05:21:05;;;;;;;11.40;10.10;;;25.90;99.90;;;;;;6128642;23;20440;-96
2022/08/20 05:23:33;;;;;;;13.50;10.33;;;25.90;99.90;;;;;;6130614;23;20200;-93
2022/08/20 05:25:59;;;;;;;11.73;10.27;;;25.90;99.90;;;;;;6127661;23;20524;-95
2022/08/20 05:28:31;;;;;;;13.63;11.60;;;25.90;99.90;;;;;;6128745;23;20859;-95
2022/08/20 05:31:01;;;;;;;15.77;11.60;;;25.80;99.90;;;;;;6129011;23;20751;-94
2022/08/20 05:33:27;;;;;;;16.83;11.50;;;25.60;99.90;;;;;;6129232;23;20392;-93
2022/08/20 05:35:53;;;;;;;13.50;10.87;;;25.60;99.90;;;;;;6128731;23;20484;-93
2022/08/20 05:38:23;;;;;;;13.43;10.97;;;25.50;99.90;;;;;;6129485;23;20385;-95
2022/08/20 05:40:49;;;;;;;18.37;12.97;;;25.50;99.90;;;;;;6135727;23;20988;-94
2022/08/20 05:43:17;;;;;;;16.37;11.93;;;25.50;99.90;;;;;;6138771;23;20389;-94
2022/08/20 05:45:44;;;;;;;14.60;11.53;;;25.40;99.90;;;;;;6129394;23;20500;-94
2022/08/20 05:48:13;;;;;;;17.30;12.30;;;25.40;99.90;;;;;;6129893;23;20505;-95
2022/08/20 05:50:41;;;;;;;14.27;10.47;;;25.40;99.90;;;;;;6128865;23;20472;-94
2022/08/20 05:53:07;;;;;;;17.47;10.87;;;25.40;99.90;;;;;;6128694;23;20880;-95
2022/08/20 05:55:36;;;;;;;16.03;11.43;;;25.30;99.90;;;;;;6129435;23;20434;-94
2022/08/20 05:58:03;;;;;;;17.17;11.97;;;25.30;99.90;;;;;;6130266;23;20385;-95
2022/08/20 06:00:30;;;;;;;15.47;10.43;;;25.30;99.90;;;;;;6130756;23;20444;-93
2022/08/20 06:05:40;;;;;;;14.57;9.70;;;25.20;99.90;;;;;;6130623;23;20726;-94
2022/08/20 06:08:08;;;;;;;13.77;9.23;;;25.10;99.90;;;;;;6129899;23;20418;-94
2022/08/20 06:10:35;;;;;;;11.00;7.00;;;25.10;99.90;;;;;;6130931;23;20423;-95
2022/08/20 06:13:01;;;;;;;11.50;7.17;;;25.00;99.90;;;;;;6140639;23;20381;-93
2022/08/20 06:15:30;;;;;;;17.20;6.37;;;25.00;99.90;;;;;;6130670;23;20503;-95
2022/08/20 06:17:56;;;;;;;10.57;5.77;;;25.00;99.90;;;;;;6128156;23;20389;-95
2022/08/20 06:20:22;;;;;;;12.43;6.47;;;25.00;99.90;;;;;;6128404;23;20933;-94
2022/08/20 06:22:47;;;;;;;12.77;6.47;;;25.00;99.90;;;;;;6128281;23;20443;-94
2022/08/20 06:25:13;;;;;;;12.93;6.77;;;24.90;99.90;;;;;;6131014;23;20183;-93
2022/08/20 06:27:41;;;;;;;15.37;7.13;;;24.90;99.90;;;;;;6133476;23;20166;-93
2022/08/20 06:30:09;;;;;;;13.57;6.67;;;24.80;99.90;;;;;;6133847;23;20542;-94
2022/08/20 06:32:35;;;;;;;15.00;6.77;;;24.70;99.90;;;;;;6133466;23;20381;-93
2022/08/20 06:35:04;;;;;;;14.33;6.63;;;24.70;99.90;;;;;;6159533;23;20432;-93
2022/08/20 06:37:31;;;;;;;12.40;7.00;;;24.70;99.90;;;;;;6159406;23;20365;-93
2022/08/20 06:40:13;;;;;;;16.63;8.93;;;24.70;99.90;;;;;;6133476;23;20447;-95
2022/08/20 06:42:40;;;;;;;16.10;9.40;;;24.70;99.90;;;;;;6132990;23;20787;-95
2022/08/20 06:45:06;;;;;;;10.73;7.20;;;24.70;99.90;;;;;;6132616;23;20424;-93
2022/08/20 06:47:33;;;;;;;17.37;7.00;;;24.70;99.90;;;;;;6133256;23;20476;-93
2022/08/20 06:49:59;;;;;;;15.03;6.60;;;24.70;99.90;;;;;;6159290;23;20423;-92
2022/08/20 06:52:25;;;;;;;8.07;6.37;;;24.70;99.90;;;;;;6135105;23;20387;-93
2022/08/20 06:54:50;;;;;;;11.90;8.67;;;24.60;99.90;;;;;;6137771;23;20185;-94
2022/08/20 06:57:16;;;;;;;13.20;6.30;;;24.60;99.90;;;;;;6135488;23;20609;-94
2022/08/20 06:59:42;;;;;;;13.40;5.50;;;24.50;99.90;;;;;;6135659;23;20205;-94
2022/08/20 07:02:08;;;;;;;9.53;5.63;;;24.50;99.90;;;;;;6135636;23;20241;-93
2022/08/20 07:04:34;;;;;;;7.70;6.13;;;24.40;99.90;;;;;;6139602;23;20202;-96
2022/08/20 07:07:00;;;;;;;17.23;6.70;;;24.40;99.90;;;;;;6137561;23;20175;-94
2022/08/20 07:09:27;;;;;;;11.23;6.17;;;24.40;99.90;;;;;;6133017;23;20448;-93
2022/08/20 07:11:52;;;;;;;10.50;6.97;;;24.40;99.90;;;;;;6133194;23;20167;-95
2022/08/20 07:14:19;;;;;;;9.73;6.37;;;24.30;99.90;;;;;;6133334;23;20513;-95
2022/08/20 07:16:46;;;;;;;10.07;5.73;;;24.20;99.90;;;;;;6134337;23;20849;-93
2022/08/20 07:19:13;;;;;;;10.87;6.93;;;24.20;99.90;;;;;;6138223;23;20830;-93
2022/08/20 07:21:39;;;;;;;15.33;6.93;;;24.10;99.90;;;;;;6134086;23;20778;-95
2022/08/20 07:24:05;;;;;;;11.00;5.80;;;24.10;99.90;;;;;;6159906;23;20428;-94
2022/08/20 07:26:31;;;;;;;10.83;6.23;;;24.10;99.90;;;;;;6158576;23;20492;-94
2022/08/20 07:28:57;;;;;;;10.03;5.97;;;24.10;99.90;;;;;;6134100;23;20414;-93
2022/08/20 07:34:07;;;;;;;7.53;6.33;;;24.00;99.90;;;;;;6162624;23;20178;-93
2022/08/20 07:36:33;;;;;;;7.60;5.80;;;24.00;99.90;;;;;;6141113;23;20388;-95
2022/08/20 07:39:00;;;;;;;8.27;5.13;;;24.00;99.90;;;;;;6133686;23;20236;-95
2022/08/20 07:41:26;;;;;;;10.87;4.87;;;24.00;99.90;;;;;;6133418;23;20240;-94
2022/08/20 07:43:52;;;;;;;8.47;5.70;;;24.00;99.90;;;;;;6158699;23;20388;-95
2022/08/20 07:46:20;;;;;;;7.10;5.10;;;24.00;99.90;;;;;;6134367;23;20715;-93
2022/08/20 07:48:48;;;;;;;9.07;5.40;;;23.90;99.90;;;;;;6134290;23;20408;-93
2022/08/20 07:51:16;;;;;;;10.20;5.47;;;23.80;99.90;;;;;;6133178;23;20411;-93
2022/08/20 07:53:44;;;;;;;6.70;5.70;;;23.80;99.90;;;;;;6132674;23;20409;-92
2022/08/20 07:56:18;;;;;;;5.57;4.77;;;23.80;99.90;;;;;;6132975;23;20458;-95
2022/08/20 07:58:49;;;;;;;11.43;5.00;;;23.70;99.90;;;;;;6133747;23;20498;-92
2022/08/20 08:01:28;;;;;;;9.60;4.60;;;23.70;99.90;;;;;;6133714;23;20956;-95
2022/08/20 08:03:54;;;;;;;8.43;4.00;;;23.70;99.90;;;;;;6136204;23;20428;-93
2022/08/20 08:06:22;;;;;;;10.20;4.60;;;23.60;99.90;;;;;;6139806;23;20390;-92
2022/08/20 08:08:49;;;;;;;6.70;4.40;;;23.60;99.90;;;;;;6163645;23;20400;-94
2022/08/20 08:11:15;;;;;;;6.77;4.60;;;23.60;99.90;;;;;;6139826;23;20451;-93
2022/08/20 08:13:42;;;;;;;7.73;5.10;;;23.70;99.90;;;;;;6135876;23;20411;-93
2022/08/20 08:16:09;;;;;;;4.37;3.97;;;23.70;99.90;;;;;;6130713;23;20438;-94
2022/08/20 08:18:50;;;;;;;9.63;4.40;;;23.80;99.90;;;;;;6131308;23;20453;-94
2022/08/20 08:21:17;;;;;;;5.90;4.20;;;23.80;99.90;;;;;;6130879;23;20488;-95
2022/08/20 08:23:43;;;;;;;5.97;4.43;;;23.90;99.90;;;;;;6131398;23;20403;-95
2022/08/20 08:26:14;;;;;;;6.00;4.77;;;23.90;99.90;;;;;;6130741;23;20447;-95
2022/08/20 08:28:42;;;;;;;6.37;4.67;;;24.00;99.90;;;;;;6132224;23;20419;-96
2022/08/20 08:31:08;;;;;;;5.43;4.13;;;24.00;99.90;;;;;;6132665;23;20408;-94
2022/08/20 08:33:35;;;;;;;6.03;3.97;;;24.10;99.90;;;;;;6132895;23;20393;-96
2022/08/20 08:36:04;;;;;;;7.23;3.80;;;24.10;99.90;;;;;;6134518;23;20487;-95
2022/08/20 08:38:36;;;;;;;6.10;4.53;;;24.10;99.90;;;;;;6133243;23;20377;-95
2022/08/20 08:41:22;;;;;;;6.13;4.00;;;24.20;99.90;;;;;;6132849;23;20470;-95
2022/08/20 08:43:52;;;;;;;9.87;4.30;;;24.20;99.90;;;;;;6108408;23;20407;-96
2022/08/20 08:46:22;;;;;;;6.23;4.83;;;24.20;99.90;;;;;;6134491;23;20388;-94
2022/08/20 08:48:52;;;;;;;6.73;5.27;;;24.20;99.90;;;;;;6134171;23;20400;-95
2022/08/20 08:51:33;;;;;;;10.00;5.00;;;24.20;99.90;;;;;;6159349;23;20406;-93
2022/08/20 08:54:01;;;;;;;5.63;4.17;;;24.20;99.90;;;;;;6132765;23;20415;-93
2022/08/20 08:56:29;;;;;;;5.33;4.60;;;24.20;99.90;;;;;;6132687;23;20435;-93
2022/08/20 08:59:00;;;;;;;9.37;5.30;;;24.10;99.90;;;;;;6157654;23;20388;-95
2022/08/20 09:01:27;;;;;;;7.23;4.03;;;24.00;99.90;;;;;;6132064;23;20458;-95
2022/08/20 09:03:53;;;;;;;5.53;4.13;;;23.90;99.90;;;;;;6132210;23;20424;-95
2022/08/20 09:06:23;;;;;;;6.37;4.03;;;23.80;99.90;;;;;;6135104;23;20383;-94
2022/08/20 09:08:52;;;;;;;6.30;4.33;;;23.80;99.90;;;;;;6134058;23;20177;-95
2022/08/20 09:11:21;;;;;;;8.30;4.70;;;23.90;99.90;;;;;;6133768;23;20398;-94
2022/08/20 09:13:47;;;;;;;14.27;6.57;;;24.00;99.90;;;;;;6134316;23;20399;-93
2022/08/20 09:16:14;;;;;;;9.97;4.13;;;24.00;99.90;;;;;;6144381;23;20398;-95
2022/08/20 09:18:40;;;;;;;9.83;4.83;;;24.10;99.90;;;;;;6133593;23;20400;-96
2022/08/20 09:21:07;;;;;;;8.10;4.80;;;24.20;99.90;;;;;;6133450;23;20763;-94
2022/08/20 09:23:33;;;;;;;7.27;5.17;;;24.20;99.90;;;;;;6133853;23;20873;-93
2022/08/20 09:25:58;;;;;;;6.00;4.40;;;24.30;99.90;;;;;;6133070;23;20432;-94
2022/08/20 09:28:24;;;;;;;8.83;4.37;;;24.30;99.90;;;;;;6133844;23;20870;-96
2022/08/20 09:30:50;;;;;;;7.47;4.80;;;24.30;99.90;;;;;;6133390;23;20562;-96
2022/08/20 09:33:17;;;;;;;17.40;6.20;;;24.40;99.90;;;;;;6159340;23;20376;-94
2022/08/20 09:35:44;;;;;;;7.20;4.90;;;24.40;99.90;;;;;;6159809;23;20216;-92
2022/08/20 09:38:10;;;;;;;9.73;5.47;;;24.50;99.90;;;;;;6133859;23;20873;-94
2022/08/20 09:40:36;;;;;;;9.37;4.60;;;24.50;99.90;;;;;;6133708;23;20515;-95
2022/08/20 09:43:05;;;;;;;9.70;5.33;;;24.60;99.90;;;;;;6134885;23;20420;-93
2022/08/20 09:45:31;;;;;;;9.30;5.07;;;24.60;99.90;;;;;;6136521;23;20649;-94
2022/08/20 09:47:57;;;;;;;9.80;5.30;;;24.60;99.90;;;;;;6136526;23;20434;-94
2022/08/20 09:50:28;;;;;;;7.20;4.80;;;24.60;99.90;;;;;;6136695;23;20183;-94
2022/08/20 09:52:57;;;;;;;9.60;4.93;;;24.70;99.90;;;;;;6136766;23;20373;-95
2022/08/20 09:55:34;;;;;;;7.60;4.53;;;24.70;99.90;;;;;;6137062;23;20510;-94
2022/08/20 09:58:04;;;;;;;6.03;5.07;;;24.70;99.90;;;;;;6135862;23;20384;-96
2022/08/20 10:00:30;;;;;;;10.80;5.07;;;24.70;99.90;;;;;;6140875;23;20463;-93
2022/08/20 10:02:55;;;;;;;10.33;4.80;;;24.70;99.90;;;;;;6138988;23;20394;-94
2022/08/20 10:05:21;;;;;;;12.60;5.63;;;24.70;99.90;;;;;;6137683;23;20628;-94
2022/08/20 10:07:47;;;;;;;5.63;4.20;;;24.70;99.90;;;;;;6140574;23;20245;-95
2022/08/20 10:10:14;;;;;;;8.30;5.27;;;24.70;99.90;;;;;;6164167;23;20208;-94
2022/08/20 10:12:44;;;;;;;7.07;4.90;;;24.80;99.90;;;;;;6138003;23;20182;-93
2022/08/20 10:15:11;;;;;;;5.80;4.50;;;24.80;99.90;;;;;;6136912;23;20424;-93
2022/08/20 10:17:39;;;;;;;10.37;4.60;;;24.80;99.90;;;;;;6133870;23;20881;-95
2022/08/20 10:20:07;;;;;;;9.00;4.70;;;24.80;99.90;;;;;;6134578;23;20506;-95
2022/08/20 10:22:33;;;;;;;5.20;3.40;;;24.80;99.90;;;;;;6135185;23;20385;-94
2022/08/20 10:24:59;;;;;;;8.67;5.00;;;24.80;99.90;;;;;;6134226;23;20909;-94
2022/08/20 10:27:25;;;;;;;5.80;4.30;;;24.80;99.90;;;;;;6133370;23;20427;-94
2022/08/20 10:29:51;;;;;;;4.87;4.20;;;24.80;99.90;;;;;;6159905;23;20412;-93
2022/08/20 10:32:17;;;;;;;8.47;3.90;;;24.80;99.90;;;;;;6136120;23;20162;-93
2022/08/20 10:34:45;;;;;;;6.33;3.17;;;24.80;99.90;;;;;;6133844;23;20210;-93
2022/08/20 10:37:19;;;;;;;8.47;4.33;;;24.70;99.90;;;;;;6159703;23;20226;-93
2022/08/20 10:39:45;;;;;;;5.97;4.13;;;24.70;99.90;;;;;;6134749;23;20449;-93
2022/08/20 10:42:12;;;;;;;7.20;4.10;;;24.70;99.90;;;;;;6134123;23;20436;-95
2022/08/20 10:44:37;;;;;;;7.13;4.30;;;24.70;99.90;;;;;;6134298;23;20425;-93
2022/08/20 10:47:24;;;;;;;4.70;3.60;;;24.70;99.90;;;;;;6133832;23;20380;-94
2022/08/20 10:49:51;;;;;;;6.03;3.60;;;24.60;99.90;;;;;;6134923;23;20271;-94
2022/08/20 10:52:17;;;;;;;6.80;3.73;;;24.60;99.90;;;;;;6142285;23;20360;-95
2022/08/20 10:54:43;;;;;;;5.97;4.47;;;24.60;99.90;;;;;;6169720;23;20475;-93
2022/08/20 10:57:15;;;;;;;7.37;4.53;;;24.50;99.90;;;;;;6133176;23;20169;-93
2022/08/20 10:59:42;;;;;;;9.00;4.57;;;24.50;99.90;;;;;;6133678;23;20436;-95
2022/08/20 11:02:08;;;;;;;15.13;5.00;;;24.40;99.90;;;;;;6135829;23;20377;-95
2022/08/20 11:04:35;;;;;;;6.63;4.77;;;24.40;99.90;;;;;;6135254;23;20524;-95
2022/08/20 11:07:24;;;;;;;7.03;4.50;;;24.40;99.90;;;;;;6134348;23;20384;-94
2022/08/20 11:09:51;;;;;;;5.90;4.73;;;24.40;99.90;;;;;;6133831;23;20424;-96
2022/08/20 11:12:18;;;;;;;10.67;4.20;;;24.40;99.90;;;;;;6158353;23;20468;-94
2022/08/20 11:14:44;;;;;;;10.90;4.67;;;24.40;99.90;;;;;;6133499;23;20420;-94
2022/08/20 11:17:10;;;;;;;5.80;3.80;;;24.40;99.90;;;;;;6158104;23;20734;-95
2022/08/20 11:19:42;;;;;;;5.87;4.10;;;24.40;99.90;;;;;;6160472;23;20525;-93
2022/08/20 11:22:09;;;;;;;13.17;5.80;;;24.40;99.90;;;;;;6134122;23;20378;-93
2022/08/20 11:24:35;;;;;;;8.20;5.10;;;24.40;99.90;;;;;;6139637;23;20978;-95
2022/08/20 11:27:01;;;;;;;8.33;4.93;;;24.40;99.90;;;;;;6135332;23;20432;-93
2022/08/20 11:29:27;;;;;;;8.80;4.93;;;24.40;99.90;;;;;;6134550;23;20455;-92
2022/08/20 11:31:53;;;;;;;9.60;5.00;;;24.40;99.90;;;;;;6134826;23;20384;-94
2022/08/20 11:34:18;;;;;;;8.80;4.60;;;24.30;99.90;;;;;;6144937;23;20210;-94
2022/08/20 11:36:46;;;;;;;11.90;5.20;;;24.30;99.90;;;;;;6134443;23;20158;-94
2022/08/20 11:39:12;;;;;;;7.67;4.57;;;24.30;99.90;;;;;;6132495;23;20194;-93
2022/08/20 11:41:38;;;;;;;13.83;5.20;;;24.30;99.90;;;;;;6132529;23;20502;-95
2022/08/20 11:44:04;;;;;;;9.97;4.50;;;24.30;99.90;;;;;;6132862;23;20409;-94
2022/08/20 11:46:31;;;;;;;8.33;5.60;;;24.30;99.90;;;;;;6132464;23;20155;-94
2022/08/20 11:48:58;;;;;;;10.83;5.77;;;24.30;99.90;;;;;;6135351;23;20162;-95
2022/08/20 11:51:23;;;;;;;10.17;5.90;;;24.30;99.90;;;;;;6139634;23;20424;-94
2022/08/20 11:53:49;;;;;;;11.20;6.27;;;24.30;99.90;;;;;;6133724;23;20412;-95
2022/08/20 11:56:16;;;;;;;13.03;6.63;;;24.30;99.90;;;;;;6133073;23;20186;-95
2022/08/20 11:58:42;;;;;;;13.10;6.30;;;24.40;99.90;;;;;;6133034;23;20167;-93
2022/08/20 12:01:08;;;;;;;9.67;6.43;;;24.40;99.90;;;;;;6132903;23;20498;-92
2022/08/20 12:03:34;;;;;;;8.00;6.00;;;24.40;99.90;;;;;;6132904;23;20177;-94
2022/08/20 12:06:00;;;;;;;8.53;6.40;;;24.50;99.90;;;;;;6132953;23;20175;-94
2022/08/20 12:08:28;;;;;;;9.37;6.23;;;24.50;99.90;;;;;;6132793;23;20386;-93
2022/08/20 12:10:55;;;;;;;8.47;6.33;;;24.50;99.90;;;;;;6133108;23;20523;-92
2022/08/20 12:13:21;;;;;;;11.50;6.63;;;24.60;99.90;;;;;;6137488;23;20380;-94
2022/08/20 12:15:48;;;;;;;8.30;6.07;;;24.60;99.90;;;;;;6147715;23;20470;-94
2022/08/20 12:18:14;;;;;;;13.97;6.83;;;24.70;99.90;;;;;;6160468;23;20146;-94
2022/08/20 12:20:40;;;;;;;10.43;6.40;;;24.70;99.90;;;;;;6134162;23;20760;-94
2022/08/20 12:23:06;;;;;;;9.70;6.00;;;24.80;99.90;;;;;;6132966;23;20165;-94
2022/08/20 12:25:32;;;;;;;10.33;6.10;;;24.80;99.90;;;;;;6132559;23;20210;-94
2022/08/20 12:27:58;;;;;;;8.63;5.30;;;24.90;99.90;;;;;;6132447;23;20494;-96
2022/08/20 12:30:24;;;;;;;12.43;6.40;;;24.90;99.90;;;;;;6133018;23;20443;-93
2022/08/20 12:32:50;;;;;;;9.03;6.60;;;24.90;99.90;;;;;;6133239;23;20377;-93
2022/08/20 12:35:17;;;;;;;12.57;7.77;;;25.00;99.90;;;;;;6133113;23;20528;-94
2022/08/20 12:37:44;;;;;;;9.57;6.67;;;25.00;99.90;;;;;;6132795;23;20205;-93
2022/08/20 12:40:16;;;;;;;6.93;5.83;;;25.00;99.90;;;;;;6159105;23;20452;-95
2022/08/20 12:42:42;;;;;;;10.40;6.43;;;25.00;99.90;;;;;;6134430;23;20391;-95
2022/08/20 12:45:08;;;;;;;7.13;6.13;;;25.00;99.90;;;;;;6135739;23;20459;-95
2022/08/20 12:47:38;;;;;;;14.03;6.90;;;25.10;99.90;;;;;;6136950;23;20467;-93
2022/08/20 12:50:08;;;;;;;13.60;6.87;;;25.10;99.90;;;;;;6134532;23;20921;-93